Plentywood, MT (59254)

10:44 PM MDT on September 01, 2014 (GMT -0600)
Crosby | Change Station
CLOSE
Current Station
Airport
Location: Crosby,
Elevation: 1949 ft
Nearby Weather Stations

Elev 1949 ft 48.93 °N, 103.30 °W | Updated 9 minutes ago

Scattered Clouds
Scattered Clouds
55 °F
Feels Like 55 °F
N
8
Wind Variable Wind from WSW

Today
High -- | Low -- °F
--% Chance of Precip.
Yesterday
High -- | Low -- °F
Precip. -- in
6:15 AM 7:40 PM
Waxing Crescent, 47% visible
Pressure 29.81 in
Visibility 10.0 miles
Clouds Scattered Clouds 12000 ft
Dew Point 50 °F
Humidity 82%
Rainfall 0.00 in
Snow Depth Not available.
UV 0 out of 12
Pollen 8.70 out of 12
Air Quality Not available.
Flu Activity Not available.
METAR KD50 020435Z AUTO 24007KT 10SM SCT120 13/10 A2981 RMK AO2

More Conditions Fewer Conditions

Pressure 29.81 in
Visibility 10.0 miles
Clouds Scattered Clouds 12000 ft
Dew Point 50 °F
Humidity 82%
Rainfall 0.00 in
Snow Depth Not available.
UV 0 out of 12
Pollen 8.70 out of 12
Air Quality Not available.
Flu Activity Not available.
METAR KD50 020435Z AUTO 24007KT 10SM SCT120 13/10 A2981 RMK AO2

More Conditions Fewer Conditions

10-Day Weather Forecast

Almanac

Astronomy

Sep. 01, 2014 Rise Set
Actual Time 6:15 AM MDT 7:40 PM MDT
Civil Twilight 5:42 AM MDT 8:13 PM MDT
Nautical Twilight 5:02 AM MDT 8:52 PM MDT
Astronomical Twilight 4:19 AM MDT 9:35 PM MDT
Moon 1:38 PM MDT (9/1) 11:09 PM MDT (9/1)
Length of Visible Light 14h 30m
Length of Day
13h 25m
Tomorrow will be 3m 28s shorter.
Waxing Crescent, 47% of the Moon is Illuminated
Sep 2
Waxing Crescent
Sep 2
First Quarter
Sep 8
Full
Sep 15
Last Quarter
Sep 24
New

Yesterday's Extremes

State Highs State Lows

Community

WunderPhotos

Upload Photos

1,749,573 photos uploaded!

WunderBlogs® & News

Nearby

Snow Depth

Station Depth Elevation
Crystal Lake 0 in 6050 ft
Spur Park 0 in 8100 ft
Onion Park 0 in 7410 ft
Porcupine 1 in 6500 ft
Cole Creek 0 in 7850 ft

Earthquake Activity

City Distance Mag. Time & Date
No recent earthquake activity has been reported nearby.
Minimum magnitude displayed is 2.5.

Coastal Water Temperatures

Place Temperature
No Stations Reporting

Nearby Weather Stations